Terminal Aerodrome Forecast
Issued by NWS Lake Charles, LA

Home | Current Version | Previous Version | Text Only | Print | Product List | Glossary On
Versions: 1 2 3 4 5 6 7 8 9 10 11 12 13 14 15 16 17 18 19 20
000
FTUS44 KLCH 270520
TAFLCH
TAF
KLCH 270520Z 2706/2806 17005KT P6SM VCSH FEW016 SCT021 BKN070
      TEMPO 2708/2712 5SM BR SCT070 OVC120
     FM271500 17014G19KT P6SM VCTS BKN025CB BKN040 PROB30 2718/2724
      2SM -SHRA OVC018
     FM280000 15008KT P6SM FEW015 SCT025 OVC045=

USA.gov is the U.S. government's official web portal to all federal, state and local government web resources and services.